Time;durP1;ratioP1;P1;durP2;ratioP2;P2;SDS_P1;SDS_P2;PMS_P1;PMS_P2;Temp;Humidity;BMP_temperature;BMP_pressure;BME280_temperature;BME280_humidity;BME280_pressure;Samples;Min_cycle;Max_cycle;Signal;HPM_P1;HPM_P2
2022/01/19 00:04:27;;;;;;;8.20;4.22;;;-1.90;99.90;;;;;;20892145;28;20542;-46
2022/01/19 00:14:30;;;;;;;8.65;3.92;;;-1.90;99.90;;;;;;20891874;28;20396;-46
2022/01/19 00:24:33;;;;;;;9.18;3.83;;;-1.80;99.90;;;;;;20891479;28;20462;-48
2022/01/19 00:34:35;;;;;;;7.05;3.40;;;-1.90;99.90;;;;;;20889907;28;20041;-47
2022/01/19 00:44:38;;;;;;;8.27;3.00;;;-1.80;99.90;;;;;;20888819;28;20399;-45
2022/01/19 00:54:42;;;;;;;9.20;4.28;;;-1.90;99.90;;;;;;20888377;28;20098;-46
2022/01/19 01:04:45;;;;;;;7.05;3.58;;;-1.80;99.90;;;;;;20887715;28;20484;-50
2022/01/19 01:25:11;;;;;;;7.95;3.53;;;-1.90;99.90;;;;;;20885210;28;20041;-46
2022/01/19 01:35:14;;;;;;;8.95;3.55;;;-2.10;99.90;;;;;;20886671;28;20036;-48
2022/01/19 01:45:22;;;;;;;8.35;3.75;;;-2.10;99.90;;;;;;20868278;28;20045;-47
2022/01/19 01:55:29;;;;;;;6.72;3.30;;;-2.10;99.90;;;;;;20885674;28;20084;-48
2022/01/19 02:05:35;;;;;;;9.10;3.47;;;-2.10;99.90;;;;;;20884291;28;20041;-50
2022/01/19 02:15:57;;;;;;;5.57;2.83;;;-2.20;99.90;;;;;;20883773;28;20040;-46
2022/01/19 02:26:05;;;;;;;6.80;2.88;;;-2.30;99.90;;;;;;20883047;28;20045;-47
2022/01/19 02:56:49;;;;;;;7.55;3.60;;;-2.40;99.90;;;;;;20897869;28;20094;-46
2022/01/19 03:17:01;;;;;;;7.55;3.38;;;-2.40;99.90;;;;;;20896131;28;20065;-48
2022/01/19 03:27:07;;;;;;;9.48;3.53;;;-2.40;99.90;;;;;;20895317;28;20045;-46
2022/01/19 03:37:16;;;;;;;10.02;4.13;;;-2.40;99.90;;;;;;20878463;28;20095;-47
2022/01/19 03:47:19;;;;;;;6.97;3.30;;;-2.40;99.90;;;;;;20876741;28;20045;-45
2022/01/19 03:57:21;;;;;;;7.07;3.50;;;-2.40;99.90;;;;;;20893222;28;20083;-46
2022/01/19 04:07:26;;;;;;;6.53;2.67;;;-2.60;99.90;;;;;;20876163;28;20033;-45
2022/01/19 04:17:29;;;;;;;7.00;3.30;;;-2.60;99.90;;;;;;20875355;28;20045;-45
2022/01/19 04:27:32;;;;;;;5.82;2.75;;;-2.70;99.90;;;;;;20890624;28;20057;-47
2022/01/19 04:48:20;;;;;;;6.85;3.10;;;-2.90;99.90;;;;;;20889018;28;20469;-48
2022/01/19 05:09:05;;;;;;;7.93;3.10;;;-2.80;99.90;;;;;;20887751;28;20523;-46
2022/01/19 05:19:09;;;;;;;8.15;3.33;;;-2.80;99.90;;;;;;20886577;28;20036;-45
2022/01/19 05:29:14;;;;;;;6.78;2.88;;;-2.70;99.90;;;;;;20869638;28;20052;-46
2022/01/19 05:39:16;;;;;;;7.43;3.17;;;-2.80;99.90;;;;;;20868979;28;20041;-50
2022/01/19 05:49:43;;;;;;;7.50;3.03;;;-2.80;99.90;;;;;;20901366;28;20170;-47
2022/01/19 05:59:48;;;;;;;9.60;3.40;;;-2.80;99.90;;;;;;20867925;28;20033;-44
2022/01/19 06:10:07;;;;;;;14.10;4.18;;;-2.80;99.90;;;;;;20867321;28;20436;-45
2022/01/19 06:20:16;;;;;;;10.77;5.03;;;-2.80;99.90;;;;;;20883715;28;20102;-45
2022/01/19 06:30:20;;;;;;;9.77;4.43;;;-2.80;99.90;;;;;;20883054;28;20044;-46
2022/01/19 06:40:27;;;;;;;17.23;5.40;;;-2.90;99.90;;;;;;20882923;28;20098;-46
2022/01/19 06:50:31;;;;;;;13.75;6.15;;;-3.00;99.90;;;;;;20899247;28;20037;-44
2022/01/19 07:00:35;;;;;;;15.80;5.88;;;-3.10;99.90;;;;;;20884086;28;20094;-47
2022/01/19 07:10:44;;;;;;;14.70;5.65;;;-3.00;99.90;;;;;;20881600;28;20056;-45
2022/01/19 07:20:47;;;;;;;13.25;5.90;;;-2.90;99.90;;;;;;20891335;28;20037;-46
2022/01/19 07:30:50;;;;;;;13.00;5.80;;;-2.80;99.90;;;;;;20895402;28;20049;-46
2022/01/19 07:40:54;;;;;;;16.35;6.65;;;-2.70;99.90;;;;;;20894334;28;20442;-45
2022/01/19 07:50:57;;;;;;;16.33;7.38;;;-2.70;99.90;;;;;;20893714;28;20032;-46
2022/01/19 08:01:32;;;;;;;15.90;7.70;;;-2.40;99.90;;;;;;20892887;28;20076;-46
2022/01/19 08:11:39;;;;;;;15.98;7.22;;;-1.50;99.90;;;;;;20892502;28;20423;-46
2022/01/19 08:21:59;;;;;;;;;;;-0.50;99.90;;;;;;20892188;28;20099;-45
2022/01/19 08:32:03;;;;;;;11.10;5.00;;;0.40;99.90;;;;;;20894251;28;19947;-46
2022/01/19 08:42:29;;;;;;;9.77;4.47;;;1.20;99.90;;;;;;20905691;28;20029;-45
2022/01/19 08:52:35;;;;;;;8.23;3.83;;;1.80;99.90;;;;;;20888584;28;20060;-46
2022/01/19 09:02:50;;;;;;;7.55;3.88;;;2.50;99.90;;;;;;20904170;28;20037;-48
2022/01/19 09:12:53;;;;;;;6.70;3.92;;;3.20;99.90;;;;;;20904631;28;20074;-45
2022/01/19 09:22:56;;;;;;;9.73;4.35;;;3.70;99.90;;;;;;20902848;28;20110;-45
2022/01/19 09:33:18;;;;;;;6.93;3.58;;;4.10;99.90;;;;;;20902322;28;20500;-47
2022/01/19 09:43:22;;;;;;;6.63;3.65;;;4.40;99.90;;;;;;20901287;28;20094;-46
2022/01/19 09:53:24;;;;;;;8.25;4.15;;;4.70;99.90;;;;;;20901127;28;20075;-46
2022/01/19 10:03:30;;;;;;;7.82;4.25;;;4.90;99.90;;;;;;20900905;28;20079;-46
2022/01/19 10:24:13;;;;;;;9.88;4.95;;;5.60;99.90;;;;;;20899801;28;20103;-46
2022/01/19 10:34:23;;;;;;;11.27;5.95;;;5.90;99.90;;;;;;20882892;28;20059;-46
2022/01/19 10:44:41;;;;;;;7.47;4.18;;;5.80;99.90;;;;;;20900392;28;20053;-47
2022/01/19 10:54:48;;;;;;;10.70;5.18;;;6.30;99.90;;;;;;20891447;28;20041;-46
2022/01/19 11:04:51;;;;;;;8.05;4.95;;;6.40;99.90;;;;;;20898378;28;20106;-46
2022/01/19 11:14:53;;;;;;;11.43;4.75;;;6.50;99.90;;;;;;20896617;28;20063;-46
2022/01/19 11:25:07;;;;;;;7.95;4.40;;;6.50;98.30;;;;;;20896625;28;20049;-45
2022/01/19 11:35:31;;;;;;;10.30;4.60;;;6.50;99.90;;;;;;20895005;28;20040;-45
2022/01/19 11:45:37;;;;;;;9.10;4.32;;;6.80;99.90;;;;;;20910775;28;20071;-49
2022/01/19 11:55:42;;;;;;;7.03;3.60;;;6.80;99.60;;;;;;20893246;28;20436;-46
2022/01/19 12:05:45;;;;;;;9.60;3.78;;;6.80;98.40;;;;;;20892452;28;20369;-47
2022/01/19 12:15:57;;;;;;;8.02;3.88;;;6.60;99.40;;;;;;20888847;28;20037;-46
2022/01/19 12:26:01;;;;;;;7.47;3.95;;;6.40;99.60;;;;;;20891837;28;20053;-45
2022/01/19 12:36:40;;;;;;;7.25;3.40;;;6.50;98.00;;;;;;20890758;28;20451;-45
2022/01/19 12:46:49;;;;;;;7.85;4.38;;;6.60;98.90;;;;;;20889450;28;20041;-46
2022/01/19 12:56:55;;;;;;;6.10;3.00;;;6.70;98.70;;;;;;20888465;28;20032;-47
2022/01/19 13:07:37;;;;;;;7.53;3.75;;;6.70;98.00;;;;;;20570589;28;20162;-46
2022/01/19 13:17:45;;;;;;;6.68;3.47;;;6.80;98.40;;;;;;20563822;28;20486;-45
2022/01/19 13:27:50;;;;;;;5.18;3.50;;;6.40;98.70;;;;;;20552990;28;20403;-45
2022/01/19 13:37:55;;;;;;;8.13;4.30;;;5.80;98.10;;;;;;20625646;28;20559;-47
2022/01/19 13:48:21;;;;;;;7.30;3.63;;;5.10;99.60;;;;;;20827270;28;20036;-46
2022/01/19 13:58:33;;;;;;;6.93;4.10;;;4.70;98.70;;;;;;20884123;28;20041;-47
2022/01/19 14:08:37;;;;;;;10.32;5.63;;;4.20;99.50;;;;;;20900424;28;20033;-46
2022/01/19 14:18:40;;;;;;;6.75;4.00;;;4.00;99.90;;;;;;20883490;28;20060;-45
2022/01/19 14:28:43;;;;;;;10.50;5.53;;;3.80;99.90;;;;;;20892645;28;20071;-48
2022/01/19 14:38:48;;;;;;;11.40;5.85;;;3.50;99.90;;;;;;20914207;28;20041;-46
2022/01/19 14:48:51;;;;;;;15.35;6.13;;;3.20;99.90;;;;;;20898927;28;20477;-46
2022/01/19 14:59:22;;;;;;;12.40;6.63;;;3.00;99.90;;;;;;20897951;28;20033;-45
2022/01/19 15:09:24;;;;;;;7.95;3.72;;;2.70;99.90;;;;;;20910578;28;20049;-48
2022/01/19 15:19:27;;;;;;;13.95;4.40;;;2.50;99.90;;;;;;20911307;28;20037;-46
2022/01/19 15:29:29;;;;;;;8.40;3.65;;;2.10;99.30;;;;;;20895525;28;20045;-47
2022/01/19 15:39:34;;;;;;;7.70;3.70;;;1.50;99.90;;;;;;20894362;28;20033;-46
2022/01/19 15:49:38;;;;;;;8.63;3.50;;;1.00;99.90;;;;;;20910874;28;20506;-46
2022/01/19 15:59:41;;;;;;;5.75;3.25;;;0.50;99.90;;;;;;20893528;28;20033;-46
2022/01/19 16:09:44;;;;;;;6.03;3.47;;;0.00;99.90;;;;;;20892639;28;20103;-47
2022/01/19 16:19:47;;;;;;;10.18;4.57;;;-0.30;99.90;;;;;;20891813;28;20392;-44
2022/01/19 16:29:49;;;;;;;13.38;4.93;;;-0.60;99.90;;;;;;20891060;28;20053;-44
2022/01/19 16:39:53;;;;;;;14.38;4.95;;;-0.80;99.90;;;;;;20890449;28;20428;-45
2022/01/19 16:49:56;;;;;;;14.35;6.30;;;-1.00;99.90;;;;;;20888722;28;20025;-47
2022/01/19 16:59:59;;;;;;;11.00;4.35;;;-1.10;99.90;;;;;;20888112;28;20106;-49
2022/01/19 17:10:09;;;;;;;9.52;4.57;;;-1.00;99.90;;;;;;20887848;28;20041;-45
2022/01/19 17:20:25;;;;;;;9.53;4.30;;;-1.10;99.90;;;;;;21171646;27;1556751;-45
2022/01/19 17:30:28;;;;;;;9.85;3.88;;;-1.20;99.90;;;;;;21139470;28;20060;-44
2022/01/19 17:40:31;;;;;;;8.13;4.40;;;-1.30;99.90;;;;;;21139163;28;20089;-46
2022/01/19 18:00:49;;;;;;;11.13;5.22;;;-1.50;99.90;;;;;;21137616;28;20483;-44
2022/01/19 18:10:52;;;;;;;11.85;5.22;;;-1.30;99.90;;;;;;21140753;28;20166;-46
2022/01/19 18:20:55;;;;;;;10.13;5.00;;;-1.30;99.90;;;;;;21202930;28;20027;-47
2022/01/19 18:30:59;;;;;;;10.32;4.55;;;-1.40;99.90;;;;;;21149799;28;20093;-45
2022/01/19 18:41:04;;;;;;;7.53;3.17;;;-1.30;99.90;;;;;;21145111;28;20455;-46
2022/01/19 18:51:09;;;;;;;7.35;3.33;;;-1.00;99.90;;;;;;21144802;28;20043;-50
2022/01/19 19:01:13;;;;;;;6.65;3.55;;;-0.90;99.90;;;;;;21143492;28;20556;-44
2022/01/19 19:21:38;;;;;;;6.93;2.88;;;-0.80;99.90;;;;;;20719146;28;20046;-46
2022/01/19 19:31:41;;;;;;;7.28;2.85;;;-0.70;99.90;;;;;;20718074;28;20041;-44
2022/01/19 19:41:44;;;;;;;7.50;3.80;;;-0.60;99.90;;;;;;20716627;28;20046;-46
2022/01/19 19:51:48;;;;;;;5.88;2.70;;;-0.50;99.90;;;;;;20779377;28;20097;-44
2022/01/19 20:01:51;;;;;;;6.82;2.95;;;-0.80;99.90;;;;;;21054749;28;20036;-46
2022/01/19 20:11:54;;;;;;;6.75;3.53;;;-0.90;99.90;;;;;;21053216;28;20044;-45
2022/01/19 20:21:57;;;;;;;8.05;3.95;;;-0.70;99.90;;;;;;21054474;28;20036;-44
2022/01/19 20:32:00;;;;;;;8.85;4.57;;;-0.90;99.90;;;;;;21052371;28;20036;-45
2022/01/19 20:42:03;;;;;;;8.60;4.75;;;-0.40;99.90;;;;;;21128963;28;20081;-44
2022/01/19 20:52:06;;;;;;;4.65;1.95;;;-0.60;99.90;;;;;;21134756;28;20044;-46
2022/01/19 21:02:11;;;;;;;7.72;3.67;;;-0.50;98.00;;;;;;21134750;28;20057;-46
2022/01/19 21:12:16;;;;;;;9.18;4.47;;;0.10;98.10;;;;;;21125444;28;20047;-46
2022/01/19 21:22:18;;;;;;;14.98;7.15;;;0.20;97.70;;;;;;21135096;28;20093;-45
2022/01/19 21:32:21;;;;;;;18.30;8.77;;;0.10;98.80;;;;;;21133331;28;20024;-44
2022/01/19 21:42:24;;;;;;;11.88;5.78;;;-0.30;99.90;;;;;;21132686;28;20076;-44
2022/01/19 21:52:26;;;;;;;10.13;6.40;;;-0.30;99.90;;;;;;21133499;28;20070;-45
2022/01/19 22:02:30;;;;;;;9.32;4.72;;;0.00;99.90;;;;;;21141225;28;20093;-44
2022/01/19 22:12:34;;;;;;;9.77;5.43;;;1.20;99.90;;;;;;21147460;28;20105;-49
2022/01/19 22:22:37;;;;;;;12.82;5.38;;;1.00;99.90;;;;;;21147116;28;20027;-44
2022/01/19 22:32:40;;;;;;;10.32;6.45;;;1.10;99.90;;;;;;21145850;28;20395;-45
2022/01/19 22:42:43;;;;;;;10.15;5.15;;;1.50;99.90;;;;;;21144990;28;20031;-44
2022/01/19 22:52:48;;;;;;;8.63;5.25;;;1.60;99.90;;;;;;21144218;28;20043;-46
2022/01/19 23:02:55;;;;;;;9.23;5.13;;;1.70;99.90;;;;;;21110789;28;20039;-44
2022/01/19 23:12:57;;;;;;;10.25;5.18;;;1.60;99.90;;;;;;21142333;28;20047;-46
2022/01/19 23:23:00;;;;;;;8.57;4.50;;;1.40;99.90;;;;;;21141947;28;20552;-46
2022/01/19 23:33:09;;;;;;;7.85;4.10;;;1.60;99.90;;;;;;21141490;28;20032;-44
2022/01/19 23:53:33;;;;;;;6.75;3.72;;;1.70;99.90;;;;;;21139579;28;20027;-45
